Time,TemperatureF,DewpointF,PressureIn,WindDirection,WindDirectionDegrees,WindSpeedMPH,WindSpeedGustMPH,Humidity,HourlyPrecipIn,Conditions,Clouds,dailyrainin,SoftwareType,DateUTC
2013-05-30 00:11:00,66.0,65.0,29.98,SSE,147,0.0,0.0,97,0.00,,,0.00,weatherlink.com 1.10,2013-05-30 04:11:00,
2013-05-30 00:26:00,65.7,65.0,29.98,SSE,147,0.0,0.0,97,0.00,,,0.00,weatherlink.com 1.10,2013-05-30 04:26:00,
2013-05-30 00:41:00,65.7,65.0,29.98,SSE,147,0.0,0.0,97,0.00,,,0.00,weatherlink.com 1.10,2013-05-30 04:41:00,
2013-05-30 00:56:00,65.9,65.0,29.98,SE,124,0.0,1.0,97,0.00,,,0.00,weatherlink.com 1.10,2013-05-30 04:56:00,
2013-05-30 01:11:00,66.9,65.0,29.98,SSE,153,2.0,5.0,93,0.00,,,0.00,weatherlink.com 1.10,2013-05-30 05:11:00,
2013-05-30 01:27:00,67.9,65.0,29.99,NW,321,0.0,2.0,89,0.00,,,0.00,weatherlink.com 1.10,2013-05-30 05:27:00,
2013-05-30 01:42:00,68.7,64.0,29.99,NE,51,0.0,3.0,86,0.00,,,0.00,weatherlink.com 1.10,2013-05-30 05:42:00,
2013-05-30 01:57:00,68.7,64.0,30.00,SSE,148,0.0,1.0,86,0.00,,,0.00,weatherlink.com 1.10,2013-05-30 05:57:00,
2013-05-30 02:12:00,68.1,64.0,30.00,SE,134,0.0,1.0,87,0.00,,,0.00,weatherlink.com 1.10,2013-05-30 06:12:00,
2013-05-30 02:27:00,67.7,64.0,30.00,SSE,156,0.0,1.0,87,0.00,,,0.00,weatherlink.com 1.10,2013-05-30 06:27:00,
2013-05-30 02:42:00,67.7,64.0,30.00,SSE,156,0.0,1.0,87,0.00,,,0.00,weatherlink.com 1.10,2013-05-30 06:42:00,
2013-05-30 02:57:00,67.1,64.0,30.00,East,92,1.0,1.0,89,0.00,,,0.00,weatherlink.com 1.10,2013-05-30 06:57:00,
2013-05-30 03:12:00,66.8,64.0,30.00,East,101,0.0,1.0,89,0.00,,,0.00,weatherlink.com 1.10,2013-05-30 07:12:00,
2013-05-30 03:27:00,67.4,64.0,29.99,SE,136,0.0,1.0,87,0.00,,,0.00,weatherlink.com 1.10,2013-05-30 07:27:00,
2013-05-30 03:42:00,67.6,63.0,29.99,East,88,0.0,2.0,86,0.00,,,0.00,weatherlink.com 1.10,2013-05-30 07:42:00,
2013-05-30 03:57:00,67.5,64.0,29.98,ENE,78,0.0,1.0,87,0.00,,,0.00,weatherlink.com 1.10,2013-05-30 07:57:00,
2013-05-30 04:12:00,66.4,64.0,29.98,East,81,0.0,1.0,90,0.00,,,0.00,weatherlink.com 1.10,2013-05-30 08:12:00,
2013-05-30 04:27:00,66.4,63.0,29.98,SSE,157,0.0,1.0,89,0.00,,,0.00,weatherlink.com 1.10,2013-05-30 08:27:00,
2013-05-30 04:42:00,67.1,64.0,29.99,SE,141,1.0,1.0,88,0.00,,,0.00,weatherlink.com 1.10,2013-05-30 08:42:00,
2013-05-30 04:57:00,67.5,64.0,29.99,South,170,0.0,2.0,87,0.00,,,0.00,weatherlink.com 1.10,2013-05-30 08:57:00,
2013-05-30 05:12:00,67.4,64.0,29.99,NE,54,0.0,1.0,87,0.00,,,0.00,weatherlink.com 1.10,2013-05-30 09:12:00,
2013-05-30 05:27:00,67.7,63.0,29.99,ESE,115,0.0,3.0,86,0.00,,,0.00,weatherlink.com 1.10,2013-05-30 09:27:00,
2013-05-30 05:42:00,67.4,64.0,30.00,South,188,0.0,2.0,87,0.00,,,0.00,weatherlink.com 1.10,2013-05-30 09:42:00,
2013-05-30 05:57:00,66.8,63.0,30.00,West,270,0.0,1.0,88,0.00,,,0.00,weatherlink.com 1.10,2013-05-30 09:57:00,
2013-05-30 06:12:00,66.8,63.0,30.00,ESE,120,0.0,2.0,88,0.00,,,0.00,weatherlink.com 1.10,2013-05-30 10:12:00,
2013-05-30 06:27:00,67.1,64.0,30.00,SSE,165,0.0,3.0,88,0.00,,,0.00,weatherlink.com 1.10,2013-05-30 10:27:00,
2013-05-30 06:42:00,67.0,63.0,30.00,SW,214,1.0,3.0,88,0.00,,,0.00,weatherlink.com 1.10,2013-05-30 10:42:00,
2013-05-30 06:57:00,67.1,64.0,30.00,ESE,121,0.0,2.0,88,0.00,,,0.00,weatherlink.com 1.10,2013-05-30 10:57:00,
2013-05-30 07:12:00,67.2,64.0,30.00,ESE,123,0.0,1.0,89,0.00,,,0.00,weatherlink.com 1.10,2013-05-30 11:12:00,
2013-05-30 07:27:00,67.9,64.0,30.00,SE,131,1.0,2.0,88,0.00,,,0.00,weatherlink.com 1.10,2013-05-30 11:27:00,
2013-05-30 07:42:00,69.1,65.0,30.00,ESE,104,1.0,3.0,86,0.00,,,0.00,weatherlink.com 1.10,2013-05-30 11:42:00,
2013-05-30 07:57:00,69.7,65.0,30.00,SW,221,0.0,3.0,85,0.00,,,0.00,weatherlink.com 1.10,2013-05-30 11:57:00,
2013-05-30 08:12:00,70.0,66.0,30.01,South,173,3.0,4.0,86,0.00,,,0.00,weatherlink.com 1.10,2013-05-30 12:12:00,
2013-05-30 08:27:00,71.2,66.0,30.01,SE,134,0.0,7.0,84,0.00,,,0.00,weatherlink.com 1.10,2013-05-30 12:27:00,
2013-05-30 08:42:00,73.6,67.0,30.00,NW,314,2.0,6.0,80,0.00,,,0.00,weatherlink.com 1.10,2013-05-30 12:42:00,
2013-05-30 08:57:00,75.3,67.0,30.00,SE,127,3.0,7.0,76,0.00,,,0.00,weatherlink.com 1.10,2013-05-30 12:57:00,
2013-05-30 09:12:00,76.4,68.0,30.00,SSE,166,1.0,8.0,74,0.00,,,0.00,weatherlink.com 1.10,2013-05-30 13:12:00,
2013-05-30 09:28:00,77.4,69.0,30.01,East,87,2.0,8.0,74,0.00,,,0.00,weatherlink.com 1.10,2013-05-30 13:28:00,
2013-05-30 09:43:00,78.0,68.0,30.00,ESE,108,5.0,9.0,72,0.00,,,0.00,weatherlink.com 1.10,2013-05-30 13:43:00,
2013-05-30 09:58:00,78.8,69.0,30.00,SW,223,4.0,10.0,71,0.00,,,0.00,weatherlink.com 1.10,2013-05-30 13:58:00,
2013-05-30 10:13:00,79.0,69.0,30.00,SE,133,6.0,10.0,71,0.00,,,0.00,weatherlink.com 1.10,2013-05-30 14:13:00,
2013-05-30 10:28:00,77.7,68.0,29.99,WSW,242,7.0,13.0,72,0.00,,,0.00,weatherlink.com 1.10,2013-05-30 14:28:00,
2013-05-30 10:43:00,78.8,69.0,29.99,SE,128,6.0,13.0,71,0.00,,,0.00,weatherlink.com 1.10,2013-05-30 14:43:00,
2013-05-30 10:58:00,78.9,69.0,29.99,WSW,258,6.0,8.0,72,0.00,,,0.00,weatherlink.com 1.10,2013-05-30 14:58:00,
2013-05-30 11:13:00,79.7,69.0,29.99,ESE,108,3.0,11.0,69,0.00,,,0.00,weatherlink.com 1.10,2013-05-30 15:13:00,
2013-05-30 11:28:00,80.4,70.0,29.99,WNW,283,3.0,7.0,70,0.00,,,0.00,weatherlink.com 1.10,2013-05-30 15:28:00,
2013-05-30 11:43:00,80.6,70.0,29.99,WNW,295,4.0,8.0,70,0.00,,,0.00,weatherlink.com 1.10,2013-05-30 15:43:00,
2013-05-30 11:58:00,80.8,70.0,29.98,SSW,207,7.0,9.0,69,0.00,,,0.00,weatherlink.com 1.10,2013-05-30 15:58:00,
2013-05-30 12:13:00,81.4,70.0,29.99,SE,146,4.0,7.0,68,0.00,,,0.00,weatherlink.com 1.10,2013-05-30 16:13:00,
2013-05-30 12:28:00,81.7,70.0,29.99,West,265,1.0,10.0,67,0.00,,,0.00,weatherlink.com 1.10,2013-05-30 16:28:00,
2013-05-30 12:43:00,81.7,70.0,29.99,ENE,67,1.0,7.0,67,0.00,,,0.00,weatherlink.com 1.10,2013-05-30 16:43:00,
2013-05-30 12:58:00,81.6,69.0,29.99,SSE,155,3.0,9.0,66,0.00,,,0.00,weatherlink.com 1.10,2013-05-30 16:58:00,
2013-05-30 13:13:00,81.3,68.0,29.99,SW,228,6.0,11.0,64,0.00,,,0.00,weatherlink.com 1.10,2013-05-30 17:13:00,
2013-05-30 13:28:00,81.2,69.0,29.98,SSE,150,2.0,9.0,66,0.00,,,0.00,weatherlink.com 1.10,2013-05-30 17:28:00,
2013-05-30 13:43:00,81.7,68.0,29.98,WNW,286,3.0,9.0,64,0.00,,,0.00,weatherlink.com 1.10,2013-05-30 17:43:00,
2013-05-30 13:58:00,82.3,69.0,29.97,ESE,103,4.0,9.0,64,0.00,,,0.00,weatherlink.com 1.10,2013-05-30 17:58:00,
2013-05-30 14:13:00,82.2,69.0,29.97,East,98,7.0,10.0,64,0.00,,,0.00,weatherlink.com 1.10,2013-05-30 18:13:00,
2013-05-30 14:28:00,82.6,69.0,29.97,ESE,107,6.0,8.0,64,0.00,,,0.00,weatherlink.com 1.10,2013-05-30 18:28:00,
2013-05-30 14:43:00,82.4,69.0,29.97,SE,145,1.0,7.0,63,0.00,,,0.00,weatherlink.com 1.10,2013-05-30 18:43:00,
2013-05-30 14:58:00,82.9,68.0,29.96,ESE,102,3.0,9.0,61,0.00,,,0.00,weatherlink.com 1.10,2013-05-30 18:58:00,
2013-05-30 15:13:00,82.8,67.0,29.95,SE,142,9.0,15.0,59,0.00,,,0.00,weatherlink.com 1.10,2013-05-30 19:13:00,
2013-05-30 15:28:00,82.8,67.0,29.95,ESE,108,2.0,17.0,60,0.00,,,0.00,weatherlink.com 1.10,2013-05-30 19:28:00,
2013-05-30 15:43:00,82.8,67.0,29.95,ESE,110,3.0,12.0,60,0.00,,,0.00,weatherlink.com 1.10,2013-05-30 19:43:00,
2013-05-30 15:58:00,82.6,67.0,29.95,SE,143,3.0,14.0,60,0.00,,,0.00,weatherlink.com 1.10,2013-05-30 19:58:00,
2013-05-30 16:13:00,83.8,68.0,29.93,South,174,1.0,11.0,59,0.00,,,0.00,weatherlink.com 1.10,2013-05-30 20:13:00,
2013-05-30 16:28:00,83.5,66.0,29.93,North,349,1.0,14.0,56,0.00,,,0.00,weatherlink.com 1.10,2013-05-30 20:28:00,
2013-05-30 16:43:00,84.5,67.0,29.93,SE,133,6.0,13.0,55,0.00,,,0.00,weatherlink.com 1.10,2013-05-30 20:43:00,
2013-05-30 16:58:00,84.7,66.0,29.92,WSW,256,3.0,13.0,54,0.00,,,0.00,weatherlink.com 1.10,2013-05-30 20:58:00,
2013-05-30 17:13:00,84.5,66.0,29.91,South,174,9.0,16.0,54,0.00,,,0.00,weatherlink.com 1.10,2013-05-30 21:13:00,
2013-05-30 17:28:00,85.2,67.0,29.92,SSE,162,3.0,11.0,55,0.00,,,0.00,weatherlink.com 1.10,2013-05-30 21:28:00,
2013-05-30 17:43:00,81.6,69.0,29.92,SE,131,2.0,15.0,65,0.00,,,0.00,weatherlink.com 1.10,2013-05-30 21:43:00,
2013-05-30 17:58:00,80.0,69.0,29.90,NNW,348,1.0,9.0,70,0.00,,,0.00,weatherlink.com 1.10,2013-05-30 21:58:00,
2013-05-30 18:13:00,80.0,69.0,29.91,North,353,2.0,5.0,70,0.00,,,0.00,weatherlink.com 1.10,2013-05-30 22:13:00,
2013-05-30 18:28:00,79.5,69.0,29.90,WSW,240,1.0,10.0,71,0.01,,,0.01,weatherlink.com 1.10,2013-05-30 22:28:00,
2013-05-30 18:43:00,78.0,69.0,29.91,SSE,165,0.0,7.0,73,0.01,,,0.01,weatherlink.com 1.10,2013-05-30 22:43:00,
2013-05-30 18:59:00,76.9,68.0,29.90,SE,138,2.0,6.0,75,0.01,,,0.01,weatherlink.com 1.10,2013-05-30 22:59:00,
2013-05-30 19:14:00,77.1,69.0,29.91,WSW,245,2.0,6.0,75,0.01,,,0.01,weatherlink.com 1.10,2013-05-30 23:14:00,
2013-05-30 19:29:00,77.5,69.0,29.91,SSE,148,1.0,4.0,75,0.00,,,0.01,weatherlink.com 1.10,2013-05-30 23:29:00,
2013-05-30 19:44:00,77.5,69.0,29.91,ESE,109,0.0,4.0,76,0.00,,,0.01,weatherlink.com 1.10,2013-05-30 23:44:00,
2013-05-30 19:59:00,77.4,69.0,29.91,SW,229,2.0,4.0,75,0.00,,,0.01,weatherlink.com 1.10,2013-05-30 23:59:00,
2013-05-30 20:14:00,77.2,68.0,29.91,ESE,120,2.0,5.0,74,0.00,,,0.01,weatherlink.com 1.10,2013-05-31 00:14:00,
2013-05-30 20:29:00,77.0,69.0,29.90,SSE,167,3.0,5.0,75,0.00,,,0.01,weatherlink.com 1.10,2013-05-31 00:29:00,
2013-05-30 20:44:00,75.9,69.0,29.91,East,97,0.0,3.0,80,0.00,,,0.01,weatherlink.com 1.10,2013-05-31 00:44:00,
2013-05-30 20:59:00,76.7,68.0,29.90,SSE,153,1.0,8.0,74,0.00,,,0.01,weatherlink.com 1.10,2013-05-31 00:59:00,
2013-05-30 21:14:00,76.2,69.0,29.90,ESE,105,1.0,4.0,77,0.00,,,0.01,weatherlink.com 1.10,2013-05-31 01:14:00,
2013-05-30 21:29:00,75.6,68.0,29.91,SE,143,7.0,7.0,78,0.00,,,0.01,weatherlink.com 1.10,2013-05-31 01:29:00,
2013-05-30 21:44:00,75.9,67.0,29.91,WSW,240,4.0,7.0,75,0.00,,,0.01,weatherlink.com 1.10,2013-05-31 01:44:00,
2013-05-30 21:59:00,75.7,68.0,29.92,SW,234,5.0,5.0,76,0.00,,,0.01,weatherlink.com 1.10,2013-05-31 01:59:00,
2013-05-30 22:14:00,75.3,68.0,29.93,SE,131,1.0,4.0,77,0.00,,,0.01,weatherlink.com 1.10,2013-05-31 02:14:00,
2013-05-30 22:29:00,75.5,67.0,29.93,South,176,5.0,6.0,76,0.00,,,0.01,weatherlink.com 1.10,2013-05-31 02:29:00,
2013-05-30 22:44:00,75.9,67.0,29.94,WSW,255,0.0,6.0,75,0.00,,,0.01,weatherlink.com 1.10,2013-05-31 02:44:00,
2013-05-30 22:59:00,76.0,67.0,29.93,West,280,0.0,4.0,74,0.00,,,0.01,weatherlink.com 1.10,2013-05-31 02:59:00,
2013-05-30 23:14:00,75.4,67.0,29.94,SW,221,0.0,6.0,76,0.00,,,0.01,weatherlink.com 1.10,2013-05-31 03:14:00,
2013-05-30 23:29:00,75.2,68.0,29.94,SSE,150,2.0,4.0,77,0.00,,,0.01,weatherlink.com 1.10,2013-05-31 03:29:00,
2013-05-30 23:44:00,74.6,67.0,29.94,South,174,0.0,4.0,78,0.00,,,0.01,weatherlink.com 1.10,2013-05-31 03:44:00,
2013-05-30 23:59:00,74.2,67.0,29.94,SSW,208,1.0,4.0,78,0.00,,,0.01,weatherlink.com 1.10,2013-05-31 03:59:00,